createdAt,value
2023-04-27T00:00:12.582Z,3.3
2023-04-27T00:01:19.741Z,3.3
2023-04-27T00:02:26.962Z,3.3
2023-04-27T00:03:34.144Z,3.3
2023-04-27T00:04:40.768Z,3.3
2023-04-27T00:05:47.748Z,3.2
2023-04-27T00:06:54.713Z,3.3
2023-04-27T00:08:01.817Z,3.3
2023-04-27T00:09:08.899Z,3.2
2023-04-27T00:10:15.511Z,3.3
2023-04-27T00:11:22.691Z,3.3
2023-04-27T00:12:29.723Z,3.3
2023-04-27T00:13:36.827Z,3.3
2023-04-27T00:14:43.917Z,3.2
2023-04-27T00:15:50.610Z,3.2
2023-04-27T00:16:57.690Z,3.3
2023-04-27T00:18:04.794Z,3.2
2023-04-27T00:19:11.939Z,3.2
2023-04-27T00:20:18.517Z,3.2
2023-04-27T00:21:25.596Z,3.2
2023-04-27T00:22:32.679Z,3.2
2023-04-27T00:23:39.740Z,3.2
2023-04-27T00:24:46.853Z,3.2
2023-04-27T00:25:53.411Z,3.1
2023-04-27T00:27:00.520Z,3.1
2023-04-27T00:28:07.690Z,3.1
2023-04-27T00:29:14.949Z,3.1
2023-04-27T00:30:21.841Z,3.1
2023-04-27T00:32:35.606Z,3.1
2023-04-27T00:33:42.631Z,3.1
2023-04-27T00:34:49.750Z,3.1
2023-04-27T00:35:56.881Z,3.1
2023-04-27T00:37:03.469Z,3
2023-04-27T00:38:10.520Z,3
2023-04-27T00:39:17.733Z,3
2023-04-27T00:40:24.760Z,3
2023-04-27T00:41:31.849Z,3.1
2023-04-27T00:42:38.462Z,3.1
2023-04-27T00:43:45.613Z,3
2023-04-27T00:44:52.664Z,3.1
2023-04-27T00:45:59.796Z,3
2023-04-27T00:47:06.843Z,3.1
2023-04-27T00:48:13.451Z,3
2023-04-27T00:49:20.596Z,3
2023-04-27T00:50:27.686Z,3
2023-04-27T00:51:34.760Z,3
2023-04-27T00:52:41.942Z,3
2023-04-27T00:53:48.476Z,3
2023-04-27T00:54:55.576Z,3
2023-04-27T00:56:02.652Z,3
2023-04-27T00:58:16.894Z,3
2023-04-27T00:59:23.497Z,3
2023-04-27T01:00:30.555Z,3
2023-04-27T01:01:37.762Z,3
2023-04-27T01:02:44.954Z,3
2023-04-27T01:03:52.113Z,2.9
2023-04-27T01:04:58.514Z,2.9
2023-04-27T01:06:05.592Z,3
2023-04-27T01:07:12.672Z,2.9
2023-04-27T01:08:19.914Z,2.9
2023-04-27T01:09:26.900Z,2.9
2023-04-27T01:10:33.464Z,3
2023-04-27T01:11:40.575Z,3
2023-04-27T01:12:47.720Z,3
2023-04-27T01:13:54.808Z,3
2023-04-27T01:15:01.882Z,3
2023-04-27T01:16:08.493Z,3
2023-04-27T01:17:15.641Z,3
2023-04-27T01:18:22.723Z,3
2023-04-27T01:19:29.947Z,3
2023-04-27T01:20:36.928Z,3
2023-04-27T01:21:43.476Z,3
2023-04-27T01:22:50.582Z,2.9
2023-04-27T01:23:57.726Z,2.9
2023-04-27T01:25:04.821Z,2.9
2023-04-27T01:26:11.899Z,2.9
2023-04-27T01:27:18.526Z,2.9
2023-04-27T01:28:25.654Z,2.9
2023-04-27T01:29:32.705Z,2.9
2023-04-27T01:30:39.822Z,2.9
2023-04-27T01:31:46.971Z,2.9
2023-04-27T01:32:53.594Z,2.9
2023-04-27T01:34:00.607Z,2.8
2023-04-27T01:35:07.760Z,2.9
2023-04-27T01:36:14.835Z,2.9
2023-04-27T01:37:21.914Z,2.9
2023-04-27T01:38:28.570Z,2.9
2023-04-27T01:39:35.628Z,2.9
2023-04-27T01:40:42.719Z,2.9
2023-04-27T01:41:49.849Z,2.9
2023-04-27T01:42:56.440Z,2.8
2023-04-27T01:44:03.512Z,2.8
2023-04-27T01:45:10.678Z,2.9
2023-04-27T01:46:17.802Z,2.9
2023-04-27T01:47:24.898Z,2.9
2023-04-27T01:48:31.454Z,2.9
2023-04-27T01:49:38.568Z,2.9
2023-04-27T01:50:45.654Z,2.8
2023-04-27T01:51:52.740Z,2.8
2023-04-27T01:52:59.861Z,2.9
2023-04-27T01:54:06.485Z,2.9
2023-04-27T01:55:13.542Z,2.9
2023-04-27T01:56:20.632Z,2.9
2023-04-27T01:57:27.774Z,2.9
2023-04-27T01:58:34.910Z,2.9
2023-04-27T02:01:55.692Z,2.9
2023-04-27T02:03:02.886Z,2.9
2023-04-27T02:04:10.096Z,2.9
2023-04-27T02:05:16.498Z,2.9
2023-04-27T02:06:23.542Z,2.9
2023-04-27T02:07:30.645Z,2.9
2023-04-27T02:08:37.795Z,2.9
2023-04-27T02:09:44.901Z,2.9
2023-04-27T02:10:51.448Z,2.9
2023-04-27T02:11:58.595Z,2.9
2023-04-27T02:13:05.687Z,2.9
2023-04-27T02:14:12.810Z,2.9
2023-04-27T02:15:19.905Z,2.9
2023-04-27T02:16:26.503Z,2.9
2023-04-27T02:17:33.584Z,3
2023-04-27T02:18:40.673Z,3
2023-04-27T02:19:47.829Z,3
2023-04-27T02:20:54.902Z,3
2023-04-27T02:22:01.575Z,3
2023-04-27T02:23:08.589Z,3
2023-04-27T02:24:15.733Z,3
2023-04-27T02:25:22.777Z,3
2023-04-27T02:26:29.902Z,3.1
2023-04-27T02:27:36.496Z,3
2023-04-27T02:28:43.570Z,3
2023-04-27T02:29:50.694Z,3.1
2023-04-27T02:30:57.820Z,3
2023-04-27T02:32:06.159Z,3
2023-04-27T02:33:11.469Z,3.1
2023-04-27T02:34:18.648Z,3
2023-04-27T02:35:25.712Z,3.1
2023-04-27T02:36:32.807Z,3
2023-04-27T02:37:39.943Z,3
2023-04-27T02:38:46.570Z,3
2023-04-27T02:39:53.582Z,3
2023-04-27T02:41:00.700Z,3.1
2023-04-27T02:42:07.876Z,3.1
2023-04-27T02:43:14.930Z,3.1
2023-04-27T02:44:21.494Z,3
2023-04-27T02:45:28.667Z,3.1
2023-04-27T02:46:35.811Z,3
2023-04-27T02:47:42.900Z,3.1
2023-04-27T02:48:49.975Z,3.1
2023-04-27T02:49:56.522Z,3.1
2023-04-27T02:51:03.617Z,3.1
2023-04-27T02:52:10.705Z,3.1
2023-04-27T02:53:17.856Z,3.1
2023-04-27T02:54:24.943Z,3.1
2023-04-27T02:55:31.503Z,3.1
2023-04-27T02:56:38.643Z,3.1
2023-04-27T02:57:45.770Z,3.1
2023-04-27T02:58:52.859Z,3.1
2023-04-27T02:59:59.946Z,3.2
2023-04-27T03:01:06.577Z,3.2
2023-04-27T03:02:13.765Z,3.2
2023-04-27T03:03:20.811Z,3.2
2023-04-27T03:05:35.000Z,3.2
2023-04-27T03:06:41.570Z,3.3
2023-04-27T03:07:48.675Z,3.2
2023-04-27T03:08:55.786Z,3.2
2023-04-27T03:10:02.946Z,3.2
2023-04-27T03:11:09.963Z,3.3
2023-04-27T03:12:16.637Z,3.3
2023-04-27T03:13:23.653Z,3.2
2023-04-27T03:14:30.787Z,3.2
2023-04-27T03:15:37.913Z,3.2
2023-04-27T03:16:44.572Z,3.2
2023-04-27T03:17:51.601Z,3.3
2023-04-27T03:18:58.705Z,3.3
2023-04-27T03:20:05.829Z,3.2
2023-04-27T03:21:12.898Z,3.3
2023-04-27T03:22:19.458Z,3.2
2023-04-27T03:23:26.578Z,3.2
2023-04-27T03:24:33.750Z,3.3
2023-04-27T03:25:40.787Z,3.3
2023-04-27T03:26:47.961Z,3.3
2023-04-27T03:29:01.593Z,3.3
2023-04-27T03:30:08.723Z,3.2
2023-04-27T03:31:15.830Z,3.2
2023-04-27T03:32:22.943Z,3.3
2023-04-27T03:33:29.474Z,3.2
2023-04-27T03:34:36.633Z,3.3
2023-04-27T03:35:43.660Z,3.2
2023-04-27T03:36:50.863Z,3.3
2023-04-27T03:37:57.969Z,3.2
2023-04-27T03:39:04.525Z,3.3
2023-04-27T03:40:11.573Z,3.2
2023-04-27T03:41:18.761Z,3.2
2023-04-27T03:42:25.803Z,3.2
2023-04-27T03:43:32.931Z,3.2
2023-04-27T03:44:39.562Z,3.2
2023-04-27T03:45:46.742Z,3.3
2023-04-27T03:46:53.719Z,3.3
2023-04-27T03:48:00.845Z,3.3
2023-04-27T03:49:07.973Z,3.3
2023-04-27T03:50:14.483Z,3.3
2023-04-27T03:51:21.581Z,3.3
2023-04-27T03:52:28.763Z,3.4
2023-04-27T03:53:35.913Z,3.4
2023-04-27T03:54:42.950Z,3.4
2023-04-27T03:55:49.553Z,3.4
2023-04-27T03:56:56.693Z,3.4
2023-04-27T03:58:03.685Z,3.5
2023-04-27T03:59:10.985Z,3.5
2023-04-27T04:00:17.984Z,3.5
2023-04-27T04:01:24.541Z,3.5
2023-04-27T04:02:31.803Z,3.5
2023-04-27T04:03:38.921Z,3.5
2023-04-27T04:04:46.489Z,3.5
2023-04-27T04:05:52.962Z,3.5
2023-04-27T04:06:59.647Z,3.5
2023-04-27T04:09:14.025Z,3.5
2023-04-27T04:10:20.841Z,3.5
2023-04-27T04:11:27.964Z,3.5
2023-04-27T04:12:34.569Z,3.5
2023-04-27T04:13:41.675Z,3.5
2023-04-27T04:14:48.853Z,3.5
2023-04-27T04:15:55.932Z,3.5
2023-04-27T04:17:02.994Z,3.5
2023-04-27T04:18:09.621Z,3.5
2023-04-27T04:19:16.968Z,3.5
2023-04-27T04:20:23.726Z,3.5
2023-04-27T04:21:30.887Z,3.5
2023-04-27T04:22:37.970Z,3.5
2023-04-27T04:23:44.556Z,3.5
2023-04-27T04:24:51.672Z,3.5
2023-04-27T04:25:58.892Z,3.5
2023-04-27T04:27:06.455Z,3.5
2023-04-27T04:28:12.967Z,3.6
2023-04-27T04:29:19.581Z,3.6
2023-04-27T04:30:26.662Z,3.5
2023-04-27T04:31:33.858Z,3.6
2023-04-27T04:32:40.977Z,3.6
2023-04-27T04:33:48.030Z,3.6
2023-04-27T04:34:54.576Z,3.6
2023-04-27T04:36:01.681Z,3.6
2023-04-27T04:37:08.828Z,3.6
2023-04-27T04:38:15.952Z,3.6
2023-04-27T04:39:23.019Z,3.6
2023-04-27T04:40:29.575Z,3.6
2023-04-27T04:41:36.790Z,3.6
2023-04-27T04:42:43.807Z,3.6
2023-04-27T04:43:50.903Z,3.6
2023-04-27T04:44:58.128Z,3.6
2023-04-27T04:46:04.700Z,3.6
2023-04-27T04:47:11.713Z,3.6
2023-04-27T04:48:18.800Z,3.6
2023-04-27T04:49:25.963Z,3.6
2023-04-27T04:50:32.966Z,3.5
2023-04-27T04:51:39.594Z,3.5
2023-04-27T04:52:46.746Z,3.6
2023-04-27T04:53:53.834Z,3.6
2023-04-27T04:55:00.905Z,3.6
2023-04-27T04:57:14.691Z,3.6
2023-04-27T04:58:21.695Z,3.6
2023-04-27T04:59:30.353Z,3.6
2023-04-27T05:00:35.934Z,3.6
2023-04-27T05:01:42.578Z,3.6
2023-04-27T05:02:49.718Z,3.6
2023-04-27T05:03:56.834Z,3.6
2023-04-27T05:05:03.824Z,3.6
2023-04-27T05:06:10.909Z,3.6
2023-04-27T05:07:21.486Z,3.7
2023-04-27T05:08:24.639Z,3.6
2023-04-27T05:09:31.733Z,3.6
2023-04-27T05:10:38.873Z,3.6
2023-04-27T05:12:52.483Z,3.7
2023-04-27T05:13:59.654Z,3.7
2023-04-27T05:15:06.719Z,3.7
2023-04-27T05:16:13.863Z,3.7
2023-04-27T05:17:21.000Z,3.7
2023-04-27T05:18:27.584Z,3.7
2023-04-27T05:19:34.672Z,3.7
2023-04-27T05:20:41.708Z,3.8
2023-04-27T05:21:48.993Z,3.7
2023-04-27T05:22:55.969Z,3.7
2023-04-27T05:24:02.494Z,3.7
2023-04-27T05:25:09.694Z,3.8
2023-04-27T05:26:16.785Z,3.8
2023-04-27T05:27:23.834Z,3.8
2023-04-27T05:28:30.998Z,3.8
2023-04-27T05:29:37.576Z,3.8
2023-04-27T05:30:45.742Z,3.8
2023-04-27T05:31:51.781Z,3.8
2023-04-27T05:32:59.513Z,3.8
2023-04-27T05:34:05.969Z,3.8
2023-04-27T05:35:12.549Z,3.9
2023-04-27T05:36:19.675Z,3.9
2023-04-27T05:37:26.808Z,3.9
2023-04-27T05:38:33.871Z,3.9
2023-04-27T05:39:41.016Z,3.9
2023-04-27T05:40:47.568Z,3.9
2023-04-27T05:41:54.685Z,3.9
2023-04-27T05:43:01.735Z,3.9
2023-04-27T05:44:08.937Z,3.9
2023-04-27T05:45:15.983Z,3.9
2023-04-27T05:46:22.622Z,3.9
2023-04-27T05:47:29.732Z,3.9
2023-04-27T05:48:36.833Z,3.9
2023-04-27T05:49:43.889Z,3.9
2023-04-27T05:50:50.984Z,3.9
2023-04-27T05:51:57.566Z,3.9
2023-04-27T05:53:04.677Z,4
2023-04-27T05:54:11.964Z,4
2023-04-27T05:55:18.915Z,4
2023-04-27T05:56:25.987Z,4.1
2023-04-27T05:57:32.605Z,4.1
2023-04-27T05:58:39.645Z,4.1
2023-04-27T05:59:46.827Z,4.1
2023-04-27T06:00:53.895Z,4.1
2023-04-27T06:02:01.039Z,4.1
2023-04-27T06:03:07.686Z,4.1
2023-04-27T06:04:14.998Z,4.1
2023-04-27T06:05:21.853Z,4.1
2023-04-27T06:06:28.908Z,4.1
2023-04-27T06:07:36.067Z,4.1
2023-04-27T06:08:42.583Z,4.1
2023-04-27T06:09:49.702Z,4.2
2023-04-27T06:10:56.829Z,4.2
2023-04-27T06:12:06.288Z,4.2
2023-04-27T06:13:11.036Z,4.2
2023-04-27T06:14:17.687Z,4.2
2023-04-27T06:16:31.856Z,4.2
2023-04-27T06:17:38.937Z,4.2
2023-04-27T06:18:46.066Z,4.2
2023-04-27T06:19:52.619Z,4.3
2023-04-27T06:20:59.771Z,4.3
2023-04-27T06:22:06.849Z,4.3
2023-04-27T06:23:13.952Z,4.3
2023-04-27T06:25:27.686Z,4.3
2023-04-27T06:26:34.794Z,4.3
2023-04-27T06:27:41.803Z,4.3
2023-04-27T06:28:48.956Z,4.3
2023-04-27T06:29:56.084Z,4.4
2023-04-27T06:31:02.716Z,4.4
2023-04-27T06:32:09.851Z,4.4
2023-04-27T06:33:16.887Z,4.4
2023-04-27T06:34:24.484Z,4.4
2023-04-27T06:35:31.133Z,4.5
2023-04-27T06:36:37.735Z,4.5
2023-04-27T06:37:44.767Z,4.5
2023-04-27T06:38:51.834Z,4.5
2023-04-27T06:39:58.956Z,4.5
2023-04-27T06:41:06.062Z,4.4
2023-04-27T06:42:12.704Z,4.4
2023-04-27T06:43:19.797Z,4.4
2023-04-27T06:44:26.906Z,4.4
2023-04-27T06:45:33.945Z,4.4
2023-04-27T06:46:41.287Z,4.4
2023-04-27T06:47:47.733Z,4.4
2023-04-27T06:48:54.782Z,4.4
2023-04-27T06:50:01.866Z,4.4
2023-04-27T06:51:09.015Z,4.4
2023-04-27T06:52:15.572Z,4.4
2023-04-27T06:53:22.696Z,4.4
2023-04-27T06:54:29.818Z,4.4
2023-04-27T06:55:36.880Z,4.5
2023-04-27T06:56:43.978Z,4.4
2023-04-27T06:57:51.106Z,4.5
2023-04-27T06:58:57.871Z,4.5
2023-04-27T07:00:04.824Z,4.4
2023-04-27T07:01:12.394Z,4.4
2023-04-27T07:02:19.017Z,4.4
2023-04-27T07:03:25.659Z,4.4
2023-04-27T07:04:32.760Z,4.4
2023-04-27T07:05:39.825Z,4.4
2023-04-27T07:06:46.958Z,4.5
2023-04-27T07:07:53.954Z,4.5
2023-04-27T07:09:00.654Z,4.5
2023-04-27T07:10:07.681Z,4.5
2023-04-27T07:11:14.828Z,4.5
2023-04-27T07:12:21.905Z,4.5
2023-04-27T07:13:28.991Z,4.5
2023-04-27T07:14:35.632Z,4.5
2023-04-27T07:15:42.747Z,4.5
2023-04-27T07:16:49.813Z,4.5
2023-04-27T07:17:56.984Z,4.5
2023-04-27T07:20:10.618Z,4.5
2023-04-27T07:21:17.693Z,4.5
2023-04-27T07:22:24.791Z,4.6
2023-04-27T07:23:31.930Z,4.6
2023-04-27T07:24:39.076Z,4.6
2023-04-27T07:25:45.643Z,4.6
2023-04-27T07:26:52.701Z,4.6
2023-04-27T07:27:59.861Z,4.6
2023-04-27T07:29:18.873Z,4.6
2023-04-27T07:30:14.025Z,4.7
2023-04-27T07:31:21.201Z,4.7
2023-04-27T07:32:27.774Z,4.7
2023-04-27T07:33:34.862Z,4.7
2023-04-27T07:34:52.665Z,4.7
2023-04-27T07:35:49.045Z,4.7
2023-04-27T07:36:55.618Z,4.7
2023-04-27T07:38:03.755Z,4.7
2023-04-27T07:39:09.844Z,4.7
2023-04-27T07:40:17.072Z,4.7
2023-04-27T07:41:23.996Z,4.8
2023-04-27T07:42:30.632Z,4.8
2023-04-27T07:43:37.713Z,4.8
2023-04-27T07:44:44.906Z,4.9
2023-04-27T07:45:51.965Z,4.8
2023-04-27T07:46:59.066Z,4.9
2023-04-27T07:48:05.704Z,4.9
2023-04-27T07:49:12.988Z,4.9
2023-04-27T07:50:19.869Z,4.9
2023-04-27T07:51:26.940Z,4.9
2023-04-27T07:53:40.646Z,4.9
2023-04-27T07:54:47.766Z,4.9
2023-04-27T07:55:54.891Z,4.9
2023-04-27T07:57:01.910Z,4.9
2023-04-27T07:58:09.108Z,5
2023-04-27T07:59:15.989Z,5
2023-04-27T08:00:22.766Z,5
2023-04-27T08:01:29.868Z,5
2023-04-27T08:02:37.181Z,5
2023-04-27T08:03:44.379Z,5
2023-04-27T08:04:51.119Z,5.1
2023-04-27T08:05:58.191Z,5.1
2023-04-27T08:07:05.291Z,5.1
2023-04-27T08:08:11.987Z,5
2023-04-27T08:09:19.211Z,5.1
2023-04-27T08:10:25.733Z,5.1
2023-04-27T08:11:32.790Z,5.1
2023-04-27T08:12:39.859Z,5.1
2023-04-27T08:13:46.973Z,5.1
2023-04-27T08:14:54.102Z,5.1
2023-04-27T08:16:00.668Z,5.1
2023-04-27T08:17:07.824Z,5.1
2023-04-27T08:18:14.931Z,5.2
2023-04-27T08:19:22.062Z,5.2
2023-04-27T08:20:29.106Z,5.3
2023-04-27T08:21:35.682Z,5.3
2023-04-27T08:23:49.902Z,5.3
2023-04-27T08:24:56.985Z,5.3
2023-04-27T08:26:04.101Z,5.3
2023-04-27T08:27:10.685Z,5.3
2023-04-27T08:28:17.844Z,5.4
2023-04-27T08:29:28.521Z,5.4
2023-04-27T08:30:32.043Z,5.4
2023-04-27T08:31:39.199Z,5.4
2023-04-27T08:32:45.762Z,5.3
2023-04-27T08:33:52.777Z,5.4
2023-04-27T08:34:59.933Z,5.4
2023-04-27T08:36:06.986Z,5.4
2023-04-27T08:37:14.073Z,5.5
2023-04-27T08:38:20.690Z,5.5
2023-04-27T08:39:27.860Z,5.5
2023-04-27T08:40:34.943Z,5.5
2023-04-27T08:41:42.537Z,5.4
2023-04-27T08:42:49.108Z,5.4
2023-04-27T08:43:57.368Z,5.4
2023-04-27T08:45:02.808Z,5.5
2023-04-27T08:46:10.020Z,5.5
2023-04-27T08:47:17.129Z,5.5
2023-04-27T08:48:23.627Z,5.5
2023-04-27T08:49:30.765Z,5.5
2023-04-27T08:50:37.841Z,5.5
2023-04-27T08:51:45.015Z,5.5
2023-04-27T08:52:52.076Z,5.5
2023-04-27T08:53:58.634Z,5.5
2023-04-27T08:55:05.733Z,5.5
2023-04-27T08:56:12.830Z,5.6
2023-04-27T08:57:19.934Z,5.6
2023-04-27T08:58:27.039Z,5.5
2023-04-27T08:59:33.661Z,5.5
2023-04-27T09:00:40.700Z,5.5
2023-04-27T09:01:47.912Z,5.6
2023-04-27T09:02:55.292Z,5.6
2023-04-27T09:04:02.367Z,5.6
2023-04-27T09:05:08.658Z,5.6
2023-04-27T09:06:15.898Z,5.6
2023-04-27T09:07:22.854Z,5.6
2023-04-27T09:08:29.962Z,5.6
2023-04-27T09:09:37.042Z,5.6
2023-04-27T09:10:43.647Z,5.7
2023-04-27T09:11:50.754Z,5.7
2023-04-27T09:12:57.839Z,5.7
2023-04-27T09:14:05.013Z,5.7
2023-04-27T09:15:12.054Z,5.7
2023-04-27T09:16:18.718Z,5.7
2023-04-27T09:17:25.781Z,5.8
2023-04-27T09:18:32.864Z,5.7
2023-04-27T09:19:39.957Z,5.7
2023-04-27T09:21:53.640Z,5.8
2023-04-27T09:23:00.777Z,5.8
2023-04-27T09:24:07.985Z,5.8
2023-04-27T09:25:14.962Z,5.9
2023-04-27T09:27:28.651Z,6
2023-04-27T09:28:35.763Z,5.9
2023-04-27T09:29:42.885Z,6
2023-04-27T09:30:49.970Z,6
2023-04-27T09:31:57.191Z,6.1
2023-04-27T09:33:03.809Z,6
2023-04-27T09:34:10.780Z,6
2023-04-27T09:35:17.940Z,6
2023-04-27T09:36:25.022Z,6
2023-04-27T09:37:32.082Z,6
2023-04-27T09:38:38.667Z,6
2023-04-27T09:39:45.827Z,6
2023-04-27T09:40:52.905Z,6
2023-04-27T09:41:59.990Z,6
2023-04-27T09:43:07.126Z,5.9
2023-04-27T09:44:13.688Z,5.9
2023-04-27T09:45:21.303Z,5.9
2023-04-27T09:46:27.973Z,6
2023-04-27T09:47:35.015Z,6
2023-04-27T09:48:42.070Z,6
2023-04-27T09:49:48.652Z,6
2023-04-27T09:50:55.798Z,6
2023-04-27T09:52:02.857Z,6
2023-04-27T09:53:10.081Z,6
2023-04-27T09:54:17.171Z,6
2023-04-27T09:55:23.704Z,6
2023-04-27T09:56:30.823Z,6
2023-04-27T09:57:38.488Z,6.1
2023-04-27T09:58:45.058Z,6.1
2023-04-27T09:59:52.125Z,6.1
2023-04-27T10:00:58.803Z,6.1
2023-04-27T10:02:20.880Z,6.1
2023-04-27T10:03:12.972Z,6.1
2023-04-27T10:04:20.219Z,6.2
2023-04-27T10:05:27.221Z,6.2
2023-04-27T10:06:33.713Z,6.2
2023-04-27T10:07:40.786Z,6.2
2023-04-27T10:08:47.953Z,6.2
2023-04-27T10:09:55.067Z,6.3
2023-04-27T10:11:01.592Z,6.3
2023-04-27T10:12:08.796Z,6.3
2023-04-27T10:13:15.842Z,6.3
2023-04-27T10:14:22.966Z,6.3
2023-04-27T10:15:30.255Z,6.3
2023-04-27T10:16:36.662Z,6.4
2023-04-27T10:17:43.762Z,6.4
2023-04-27T10:18:50.860Z,6.4
2023-04-27T10:19:58.665Z,6.4
2023-04-27T10:21:05.038Z,6.5
2023-04-27T10:22:11.625Z,6.5
2023-04-27T10:23:18.744Z,6.5
2023-04-27T10:24:25.867Z,6.4
2023-04-27T10:25:32.961Z,6.5
2023-04-27T10:26:40.116Z,6.4
2023-04-27T10:27:46.683Z,6.4
2023-04-27T10:28:53.700Z,6.4
2023-04-27T10:31:08.062Z,6.4
2023-04-27T10:32:15.087Z,6.4
2023-04-27T10:33:21.634Z,6.5
2023-04-27T10:34:28.776Z,6.5
2023-04-27T10:35:35.884Z,6.4
2023-04-27T10:36:42.959Z,6.4
2023-04-27T10:37:50.030Z,6.4
2023-04-27T10:38:56.676Z,6.5
2023-04-27T10:40:03.793Z,6.5
2023-04-27T10:41:10.880Z,6.5
2023-04-27T10:42:18.038Z,6.5
2023-04-27T10:43:25.103Z,6.4
2023-04-27T10:44:31.641Z,6.4
2023-04-27T10:45:38.767Z,6.5
2023-04-27T10:46:45.922Z,6.5
2023-04-27T10:47:53.042Z,6.5
2023-04-27T10:50:06.740Z,6.5
2023-04-27T10:51:13.788Z,6.5
2023-04-27T10:52:20.888Z,6.5
2023-04-27T10:53:27.987Z,6.5
2023-04-27T10:54:35.104Z,6.5
2023-04-27T10:55:41.680Z,6.5
2023-04-27T10:56:48.778Z,6.5
2023-04-27T10:57:55.926Z,6.6
2023-04-27T10:59:03.051Z,6.6
2023-04-27T11:00:10.160Z,6.6
2023-04-27T11:01:16.714Z,6.6
2023-04-27T11:02:23.869Z,6.6
2023-04-27T11:03:30.959Z,6.6
2023-04-27T11:04:38.080Z,6.6
2023-04-27T11:05:45.158Z,6.6
2023-04-27T11:06:51.697Z,6.7
2023-04-27T11:07:58.818Z,6.6
2023-04-27T11:09:05.914Z,6.6
2023-04-27T11:10:13.097Z,6.5
2023-04-27T11:11:20.239Z,6.5
2023-04-27T11:12:26.704Z,6.5
2023-04-27T11:13:34.233Z,6.5
2023-04-27T11:14:40.976Z,6.5
2023-04-27T11:15:48.075Z,6.6
2023-04-27T11:16:55.183Z,6.6
2023-04-27T11:18:01.781Z,6.7
2023-04-27T11:19:08.972Z,6.6
2023-04-27T11:20:16.011Z,6.6
2023-04-27T11:21:22.996Z,6.7
2023-04-27T11:22:29.652Z,6.7
2023-04-27T11:23:36.801Z,6.6
2023-04-27T11:24:43.847Z,6.6
2023-04-27T11:25:50.926Z,6.6
2023-04-27T11:26:58.024Z,6.7
2023-04-27T11:28:04.651Z,6.6
2023-04-27T11:29:11.892Z,6.6
2023-04-27T11:30:18.880Z,6.7
2023-04-27T11:31:25.982Z,6.7
2023-04-27T11:32:33.142Z,6.6
2023-04-27T11:34:46.756Z,6.7
2023-04-27T11:35:53.805Z,6.7
2023-04-27T11:38:08.056Z,6.6
2023-04-27T11:39:14.939Z,6.7
2023-04-27T11:40:23.280Z,6.7
2023-04-27T11:41:28.872Z,6.7
2023-04-27T11:42:35.970Z,6.7
2023-04-27T11:43:43.082Z,6.7
2023-04-27T11:44:49.669Z,6.7
2023-04-27T11:45:56.794Z,6.7
2023-04-27T11:47:03.940Z,6.7
2023-04-27T11:48:10.981Z,6.7
2023-04-27T11:49:18.108Z,6.7
2023-04-27T11:50:24.678Z,6.6
2023-04-27T11:51:31.738Z,6.6
2023-04-27T11:52:39.404Z,6.6
2023-04-27T11:53:45.985Z,6.7
2023-04-27T11:54:53.082Z,6.7
2023-04-27T11:55:59.644Z,6.7
2023-04-27T11:57:06.761Z,6.7
2023-04-27T11:58:13.881Z,6.7
2023-04-27T11:59:21.186Z,6.7
2023-04-27T12:00:28.100Z,6.7
2023-04-27T12:01:37.785Z,6.7
2023-04-27T12:02:41.898Z,6.7
2023-04-27T12:03:49.074Z,6.7
2023-04-27T12:04:56.153Z,6.7
2023-04-27T12:06:21.585Z,6.6
2023-04-27T12:07:09.693Z,6.6
2023-04-27T12:08:16.789Z,6.6
2023-04-27T12:09:23.892Z,6.6
2023-04-27T12:10:31.013Z,6.6
2023-04-27T12:11:38.163Z,6.6
2023-04-27T12:12:44.677Z,6.6
2023-04-27T12:13:51.787Z,6.6
2023-04-27T12:14:58.902Z,6.6
2023-04-27T12:16:06.031Z,6.7
2023-04-27T12:17:13.327Z,6.7
2023-04-27T12:18:19.720Z,6.7
2023-04-27T12:19:26.858Z,6.7
2023-04-27T12:20:33.905Z,6.7
2023-04-27T12:21:41.016Z,6.7
2023-04-27T12:22:48.110Z,6.6
2023-04-27T12:23:54.723Z,6.6
2023-04-27T12:25:01.769Z,6.6
2023-04-27T12:26:08.962Z,6.6
2023-04-27T12:27:16.044Z,6.6
2023-04-27T12:28:23.121Z,6.6
2023-04-27T12:29:29.790Z,6.6
2023-04-27T12:30:36.837Z,6.6
2023-04-27T12:31:43.916Z,6.6
2023-04-27T12:32:51.055Z,6.6
2023-04-27T12:33:58.138Z,6.7
2023-04-27T12:35:04.702Z,6.6
2023-04-27T12:36:11.831Z,6.6
2023-04-27T12:38:26.025Z,6.6
2023-04-27T12:39:33.096Z,6.6
2023-04-27T12:40:39.714Z,6.6
2023-04-27T12:41:46.899Z,6.6
2023-04-27T12:42:53.944Z,6.6
2023-04-27T12:44:01.028Z,6.6
2023-04-27T12:45:07.714Z,6.6
2023-04-27T12:46:14.788Z,6.6
2023-04-27T12:47:45.771Z,6.6
2023-04-27T12:48:28.981Z,6.6
2023-04-27T12:49:36.155Z,6.6
2023-04-27T12:50:42.627Z,6.6
2023-04-27T12:51:49.757Z,6.6
2023-04-27T12:52:56.843Z,6.7
2023-04-27T12:54:04.409Z,6.7
2023-04-27T12:55:21.480Z,6.7
2023-04-27T12:56:18.722Z,6.7
2023-04-27T12:57:24.753Z,6.8
2023-04-27T12:58:31.861Z,6.8
2023-04-27T12:59:39.039Z,6.8
2023-04-27T13:00:46.057Z,6.8
2023-04-27T13:01:52.706Z,6.8
2023-04-27T13:02:59.893Z,6.8
2023-04-27T13:04:07.092Z,6.8
2023-04-27T13:05:14.015Z,6.8
2023-04-27T13:06:21.078Z,6.8
2023-04-27T13:07:27.696Z,6.9
2023-04-27T13:08:34.754Z,6.9
2023-04-27T13:09:41.926Z,6.9
2023-04-27T13:10:49.020Z,6.9
2023-04-27T13:11:56.125Z,6.9
2023-04-27T13:13:02.681Z,6.9
2023-04-27T13:14:09.854Z,6.9
2023-04-27T13:15:16.930Z,6.9
2023-04-27T13:16:24.018Z,6.9
2023-04-27T13:17:31.177Z,6.9
2023-04-27T13:18:37.704Z,6.9
2023-04-27T13:19:44.794Z,6.8
2023-04-27T13:20:51.864Z,6.8
2023-04-27T13:21:58.981Z,6.8
2023-04-27T13:23:06.122Z,6.8
2023-04-27T13:24:12.848Z,6.9
2023-04-27T13:25:19.869Z,6.9
2023-04-27T13:26:26.923Z,6.9
2023-04-27T13:27:33.976Z,6.9
2023-04-27T13:28:41.063Z,6.9
2023-04-27T13:29:47.678Z,6.9
2023-04-27T13:30:54.780Z,6.9
2023-04-27T13:32:01.941Z,6.9
2023-04-27T13:33:22.010Z,6.9
2023-04-27T13:34:16.454Z,6.9
2023-04-27T13:35:22.696Z,6.9
2023-04-27T13:36:29.815Z,6.9
2023-04-27T13:37:36.914Z,6.9
2023-04-27T13:38:43.973Z,6.8
2023-04-27T13:39:51.119Z,6.8
2023-04-27T13:42:06.421Z,6.8
2023-04-27T13:43:11.918Z,6.8
2023-04-27T13:44:19.048Z,6.8
2023-04-27T13:45:26.140Z,6.8
2023-04-27T13:46:32.727Z,6.8
2023-04-27T13:47:39.940Z,6.8
2023-04-27T13:48:46.946Z,6.7
2023-04-27T13:49:54.020Z,6.7
2023-04-27T13:51:01.162Z,6.7
2023-04-27T13:52:07.757Z,6.7
2023-04-27T13:53:14.844Z,6.6
2023-04-27T13:54:21.920Z,6.6
2023-04-27T13:55:29.064Z,6.6
2023-04-27T13:56:36.162Z,6.6
2023-04-27T13:57:42.697Z,6.6
2023-04-27T13:58:49.848Z,6.6
2023-04-27T13:59:57.644Z,6.6
2023-04-27T14:01:04.013Z,6.6
2023-04-27T14:02:10.617Z,6.6
2023-04-27T14:03:17.966Z,6.6
2023-04-27T14:04:24.989Z,6.6
2023-04-27T14:05:31.985Z,6.6
2023-04-27T14:06:39.035Z,6.6
2023-04-27T14:07:45.624Z,6.6
2023-04-27T14:08:54.950Z,6.6
2023-04-27T14:09:59.921Z,6.6
2023-04-27T14:11:07.033Z,6.6
2023-04-27T14:12:14.018Z,6.6
2023-04-27T14:13:20.663Z,6.6
2023-04-27T14:14:27.758Z,6.6
2023-04-27T14:15:34.873Z,6.6
2023-04-27T14:16:41.982Z,6.6
2023-04-27T14:17:49.122Z,6.6
2023-04-27T14:18:55.678Z,6.6
2023-04-27T14:20:02.810Z,6.6
2023-04-27T14:21:09.929Z,6.6
2023-04-27T14:23:24.025Z,6.6
2023-04-27T14:24:30.698Z,6.6
2023-04-27T14:25:37.783Z,6.6
2023-04-27T14:26:44.888Z,6.6
2023-04-27T14:27:51.991Z,6.6
2023-04-27T14:28:59.076Z,6.6
2023-04-27T14:30:05.748Z,6.6
2023-04-27T14:31:12.760Z,6.6
2023-04-27T14:32:19.974Z,6.6
2023-04-27T14:33:26.965Z,6.6
2023-04-27T14:34:34.146Z,6.6
2023-04-27T14:35:40.731Z,6.6
2023-04-27T14:36:47.800Z,6.6
2023-04-27T14:37:54.925Z,6.6
2023-04-27T14:39:02.013Z,6.6
2023-04-27T14:40:09.096Z,6.6
2023-04-27T14:41:15.711Z,6.6
2023-04-27T14:42:22.774Z,6.6
2023-04-27T14:43:29.912Z,6.6
2023-04-27T14:45:52.447Z,6.6
2023-04-27T14:46:50.800Z,6.6
2023-04-27T14:47:57.959Z,6.6
2023-04-27T14:49:04.935Z,6.6
2023-04-27T14:50:12.014Z,6.6
2023-04-27T14:51:19.131Z,6.6
2023-04-27T14:52:25.743Z,6.6
2023-04-27T14:53:32.776Z,6.6
2023-04-27T14:54:39.939Z,6.6
2023-04-27T14:55:46.992Z,6.6
2023-04-27T14:56:54.138Z,6.6
2023-04-27T14:58:00.695Z,6.6
2023-04-27T14:59:07.793Z,6.6
2023-04-27T15:00:14.942Z,6.6
2023-04-27T15:01:22.017Z,6.6
2023-04-27T15:02:30.172Z,6.6
2023-04-27T15:03:36.912Z,6.6
2023-04-27T15:04:42.904Z,6.6
2023-04-27T15:05:49.916Z,6.6
2023-04-27T15:06:57.055Z,6.7
2023-04-27T15:08:04.155Z,6.7
2023-04-27T15:09:10.736Z,6.7
2023-04-27T15:10:17.835Z,6.7
2023-04-27T15:11:24.989Z,6.7
2023-04-27T15:12:31.987Z,6.7
2023-04-27T15:13:39.101Z,6.8
2023-04-27T15:14:45.792Z,6.8
2023-04-27T15:15:52.878Z,6.7
2023-04-27T15:16:59.960Z,6.8
2023-04-27T15:18:07.131Z,6.7
2023-04-27T15:19:14.436Z,6.7
2023-04-27T15:20:20.691Z,6.8
2023-04-27T15:21:27.913Z,6.7
2023-04-27T15:22:34.911Z,6.8
2023-04-27T15:23:42.037Z,6.8
2023-04-27T15:24:49.185Z,6.8
2023-04-27T15:25:55.725Z,6.8
2023-04-27T15:27:02.852Z,6.8
2023-04-27T15:28:09.959Z,6.8
2023-04-27T15:29:17.088Z,6.8
2023-04-27T15:30:24.149Z,6.9
2023-04-27T15:31:30.814Z,6.9
2023-04-27T15:32:37.911Z,6.9
2023-04-27T15:33:44.992Z,6.9
2023-04-27T15:34:52.076Z,6.9
2023-04-27T15:35:59.283Z,6.9
2023-04-27T15:37:05.816Z,6.9
2023-04-27T15:38:12.816Z,6.9
2023-04-27T15:39:20.061Z,6.9
2023-04-27T15:40:27.074Z,6.9
2023-04-27T15:41:33.610Z,6.9
2023-04-27T15:42:40.730Z,7
2023-04-27T15:43:47.990Z,6.9
2023-04-27T15:44:55.000Z,7
2023-04-27T15:46:02.037Z,6.9
2023-04-27T15:47:08.799Z,6.9
2023-04-27T15:49:22.887Z,6.9
2023-04-27T15:51:37.075Z,7
2023-04-27T15:52:43.627Z,7
2023-04-27T15:53:50.733Z,7
2023-04-27T15:54:57.898Z,7
2023-04-27T15:56:05.033Z,7
2023-04-27T15:57:12.084Z,7.1
2023-04-27T15:58:18.702Z,7